Nearby METAR Reports

 

KSJC - San Jose, California, USA
Distance from station: NØ 14km
Oppdatert: 21/10/2020 20:53
Few Clouds
Few Clouds
 Vind fra N
Vind: N 7 km/h
Temperatur: 26°C
Duggpunkt: 8°C
Fuktighet: 32%
Barometer: 1010.5 hPa
Clouds: Few Clouds
Visibility: 16 km
Cloud details: Few Clouds 914 m
2020/10/21 18:53 KSJC 211853Z 35004KT 10SM FEW030 26/08 A2984 RMK AO2 SLP103 T02560083
KNUQ - Moffett Nas/Mtn, California, USA
Distance from station: N 14km
Oppdatert: 21/10/2020 15:55
NOT Current
Klart
Klart
 Vind fra calm
Vind: Stille
Temperatur: 14°C
Duggpunkt: 11°C
Fuktighet: 82%
Barometer: 1010.5 hPa
Clouds: Klart
Visibility: 16 km
2020/10/21 13:55 KNUQ 211355Z AUTO 00000KT 10SM CLR 14/11 A2984 RMK AO2
 
KPAO - Palo Alto, California, USA
Distance from station: NNV 23km
Oppdatert: 21/10/2020 20:47
Klart
Klart
 Vind fra NNV
Vind: NNV 13 km/h
Temperatur: 23°C
Duggpunkt: 17°C
Fuktighet: 69%
Barometer: 1010.5 hPa
Clouds: Klart
Visibility: 16 km
2020/10/21 18:47 KPAO 211847Z 34007KT 10SM SKC 23/17 A2984
KRHV - San Jose/Reid, California, USA
Distance from station: ØNØ 19km
Oppdatert: 21/10/2020 06:47
NOT Current
Klart
Klart
 Vind fra calm
Vind: Stille
Temperatur: 20°C
Duggpunkt: 9°C
Fuktighet: 49%
Barometer: 1010.8 hPa
Clouds: Klart
Visibility: 16 km
2020/10/21 04:47 KRHV 210447Z 00000KT 10SM SKC 20/09 A2985 RMK LAST
 
KOAK - Oakland, California, USA
Distance from station: NNV 50km
Oppdatert: 21/10/2020 20:53
Few Clouds
Few Clouds
 Vind fra VNV
Vind: VNV 11 km/h
Temperatur: 24°C
Duggpunkt: 13°C
Fuktighet: 50%
Barometer: 1010.8 hPa
Clouds: Few Clouds
Visibility: 16 km
Cloud details: Few Clouds 5486 m
2020/10/21 18:53 KOAK 211853Z 30006KT 10SM FEW180 24/13 A2985 RMK AO2 SLP108 T02440128
KSQL - San Carlos Airpo, California, USA
Distance from station: NV 34km
Oppdatert: 21/10/2020 20:47
Klart
Klart
 Vind fra N
Vind: N 7 km/h
Temperatur: 23°C
Duggpunkt: 15°C
Fuktighet: 61%
Barometer: 1010.8 hPa
Clouds: Klart
Visibility: 16 km
2020/10/21 18:47 KSQL 211847Z 35004KT 10SM SKC 23/15 A2985
 
KSFO - San Francisco, California, USA
Distance from station: NV 49km
Oppdatert: 21/10/2020 20:56
Klart
Klart
 Vind fra NØ
Vind: NØ 7 km/h
Temperatur: 21°C
Duggpunkt: 14°C
Fuktighet: 64%
Barometer: 1010.5 hPa
Clouds: Klart
Visibility: 16 km
2020/10/21 18:56 KSFO 211856Z 04004KT 10SM CLR 21/14 A2984 RMK AO2 SLP104 T02110144
KE16 - San Martin, California, USA
Distance from station: ØSØ 43km
Oppdatert: 21/10/2020 20:50
Klart
Klart
 Vind fra NNV
Vind: NNV 9 km/h
Temperatur: 26°C
Duggpunkt: 6°C
Fuktighet: 28%
Barometer: 1011.2 hPa
Clouds: Klart
Visibility: 16 km
2020/10/21 18:50 KE16 211850Z AUTO 33005KT 10SM CLR 26/06 A2986 RMK AO2
 
KWVI - Watsonville, California, USA
Distance from station: SSØ 44km
Oppdatert: 21/10/2020 20:53
Klart
Klart
 Vind fra calm
Vind: Stille
Temperatur: 26°C
Duggpunkt: 12°C
Fuktighet: 42%
Barometer: 1010.8 hPa
Clouds: Klart
Visibility: 16 km
2020/10/21 18:53 KWVI 211853Z AUTO 00000KT 10SM CLR 26/12 A2985 RMK AO2 SLP105 T02560117
KHAF - Half Moon Bay, California, USA
Distance from station: VNV 50km
Oppdatert: 21/10/2020 20:55
Haze, Klart
Haze, Klart
 Vind fra NV
Vind: NV 17 km/h
Temperatur: 17°C
Duggpunkt: 13°C
Fuktighet: 77%
Barometer: 1011.5 hPa
Oversikt: Haze
Clouds: Klart
Visibility: 6 km
2020/10/21 18:55 KHAF 211855Z AUTO 31009KT 4SM HZ CLR 17/13 A2987 RMK AO2
 
KHWD - Hayward, California, USA
Distance from station: N 44km
Oppdatert: 21/10/2020 20:54
Klart
Klart
 Vind fra varies
Vind: varies 7 km/h
Temperatur: 25°C
Duggpunkt: 12°C
Fuktighet: 44%
Barometer: 1010.5 hPa
Clouds: Klart
Visibility: 16 km
2020/10/21 18:54 KHWD 211854Z VRB04KT 10SM CLR 25/12 A2984 RMK AO2 SLP112 T02500122
KLVK - Livermore, California, USA
Distance from station: NNØ 51km
Oppdatert: 21/10/2020 20:53
Klart
Klart
 Vind fra NV
Vind: NV 11 km/h
Temperatur: 29°C
Duggpunkt: 5°C
Fuktighet: 22%
Barometer: 1010.2 hPa
Clouds: Klart
Visibility: 16 km
2020/10/21 18:53 KLVK 211853Z 32006KT 10SM CLR 29/05 A2983 RMK AO2 SLP097 T02940050